createdAt,value
2023-05-19T00:00:59.226Z,102948.19
2023-05-19T00:03:27.239Z,102945.59
2023-05-19T00:05:54.163Z,102946.63
2023-05-19T00:08:23.921Z,102944.09
2023-05-19T00:10:50.709Z,102938.84
2023-05-19T00:13:17.455Z,102940.78
2023-05-19T00:15:44.295Z,102939.88
2023-05-19T00:18:14.041Z,102936.38
2023-05-19T00:20:41.427Z,102925.94
2023-05-19T00:23:08.135Z,102928.47
2023-05-19T00:25:34.740Z,102923.44
2023-05-19T00:28:02.478Z,102925.28
2023-05-19T00:30:32.572Z,102922.66
2023-05-19T00:32:59.263Z,102921.91
2023-05-19T00:35:26.005Z,102924.66
2023-05-19T00:37:52.674Z,102917.66
2023-05-19T00:40:19.424Z,102920.41
2023-05-19T00:42:45.978Z,102921.28
2023-05-19T00:45:12.553Z,102925.78
2023-05-19T00:47:39.517Z,102910.13
2023-05-19T00:50:06.387Z,102919.72
2023-05-19T00:52:32.986Z,102928.69
2023-05-19T00:54:59.609Z,102925.19
2023-05-19T00:57:27.103Z,102919.16
2023-05-19T00:59:54.088Z,102916.53
2023-05-19T01:02:21.548Z,102913.06
2023-05-19T01:04:48.929Z,102912.25
2023-05-19T01:07:16.483Z,102914.06
2023-05-19T01:09:43.135Z,102918.59
2023-05-19T01:12:09.755Z,102923.97
2023-05-19T01:14:36.308Z,102915.31
2023-05-19T01:17:21.300Z,102923.16
2023-05-19T01:20:02.196Z,102922.41
2023-05-19T01:22:58.944Z,102918.94
2023-05-19T01:25:59.483Z,102930.38
2023-05-19T01:28:47.870Z,102918.13
2023-05-19T01:31:16.758Z,102918.22
2023-05-19T01:33:44.002Z,102914.81
2023-05-19T01:36:12.343Z,102913.09
2023-05-19T01:38:39.618Z,102910.59
2023-05-19T01:41:06.996Z,102909.69
2023-05-19T01:43:35.868Z,102910.59
2023-05-19T01:46:03.627Z,102900.25
2023-05-19T01:48:30.582Z,102902.00
2023-05-19T01:50:57.372Z,102905.59
2023-05-19T01:53:24.775Z,102903.06
2023-05-19T01:55:53.891Z,102902.25
2023-05-19T01:58:37.874Z,102896.97
2023-05-19T02:01:24.992Z,102899.72
2023-05-19T02:04:19.789Z,102897.97
2023-05-19T02:07:03.531Z,102897.22
2023-05-19T02:09:42.188Z,102897.28
2023-05-19T02:12:40.134Z,102899.09
2023-05-19T02:15:16.910Z,102896.44
2023-05-19T02:17:48.393Z,102902.78
2023-05-19T02:20:16.468Z,102906.34
2023-05-19T02:22:43.262Z,102901.19
2023-05-19T02:25:10.916Z,102898.66
2023-05-19T02:27:38.906Z,102900.50
2023-05-19T02:30:06.780Z,102901.44
2023-05-19T02:32:33.414Z,102889.22
2023-05-19T02:35:00.096Z,102885.75
2023-05-19T02:37:28.713Z,102886.59
2023-05-19T02:39:55.311Z,102883.09
2023-05-19T02:42:21.962Z,102885.81
2023-05-19T02:44:48.783Z,102882.25
2023-05-19T02:47:15.661Z,102880.59
2023-05-19T02:49:43.024Z,102883.31
2023-05-19T02:52:09.608Z,102872.72
2023-05-19T02:54:36.265Z,102877.97
2023-05-19T02:57:02.804Z,102875.41
2023-05-19T02:59:29.334Z,102872.00
2023-05-19T03:01:59.041Z,102872.03
2023-05-19T03:04:25.622Z,102871.19
2023-05-19T03:06:52.426Z,102878.22
2023-05-19T03:09:18.907Z,102866.88
2023-05-19T03:11:45.537Z,102868.75
2023-05-19T03:14:14.012Z,102871.34
2023-05-19T03:16:42.245Z,102864.34
2023-05-19T03:19:09.641Z,102867.09
2023-05-19T03:21:36.692Z,102867.97
2023-05-19T03:24:03.474Z,102868.94
2023-05-19T03:26:29.986Z,102867.28
2023-05-19T03:28:56.505Z,102867.41
2023-05-19T03:31:23.033Z,102863.94
2023-05-19T03:33:49.551Z,102862.16
2023-05-19T03:36:16.101Z,102864.75
2023-05-19T03:38:42.594Z,102861.38
2023-05-19T03:41:09.154Z,102863.19
2023-05-19T03:43:35.659Z,102862.34
2023-05-19T03:46:02.468Z,102856.16
2023-05-19T03:48:29.043Z,102855.25
2023-05-19T03:50:55.675Z,102862.25
2023-05-19T03:53:22.333Z,102859.56
2023-05-19T03:55:49.744Z,102870.16
2023-05-19T03:58:16.533Z,102859.72
2023-05-19T04:00:42.999Z,102861.44
2023-05-19T04:03:09.779Z,102869.28
2023-05-19T04:05:36.388Z,102866.69
2023-05-19T04:08:02.970Z,102864.06
2023-05-19T04:10:29.624Z,102868.47
2023-05-19T04:12:56.938Z,102871.09
2023-05-19T04:15:23.524Z,102865.72
2023-05-19T04:17:50.095Z,102862.22
2023-05-19T04:20:16.735Z,102864.75
2023-05-19T04:22:43.231Z,102868.22
2023-05-19T04:25:09.987Z,102864.75
2023-05-19T04:27:39.295Z,102868.13
2023-05-19T04:30:06.484Z,102875.06
2023-05-19T04:32:33.206Z,102876.72
2023-05-19T04:34:59.949Z,102871.44
2023-05-19T04:37:26.712Z,102865.19
2023-05-19T04:39:54.240Z,102869.47
2023-05-19T04:42:21.098Z,102876.44
2023-05-19T04:44:49.339Z,102875.56
2023-05-19T04:47:16.202Z,102878.19
2023-05-19T04:49:43.022Z,102868.53
2023-05-19T04:52:11.797Z,102882.41
2023-05-19T04:54:39.385Z,102884.06
2023-05-19T04:57:06.607Z,102883.94
2023-05-19T04:59:33.442Z,102887.38
2023-05-19T05:02:00.179Z,102868.84
2023-05-19T05:04:26.918Z,102873.09
2023-05-19T05:06:53.456Z,102874.75
2023-05-19T05:09:20.070Z,102879.94
2023-05-19T05:11:46.932Z,102882.47
2023-05-19T05:14:13.661Z,102880.59
2023-05-19T05:16:40.840Z,102876.97
2023-05-19T05:19:07.859Z,102878.63
2023-05-19T05:21:34.771Z,102879.22
2023-05-19T05:24:01.732Z,102875.53
2023-05-19T05:26:31.162Z,102876.13
2023-05-19T05:28:57.664Z,102886.50
2023-05-19T05:31:24.281Z,102878.50
2023-05-19T05:33:50.804Z,102874.78
2023-05-19T05:36:17.412Z,102876.41
2023-05-19T05:38:43.913Z,102873.66
2023-05-19T05:41:10.610Z,102876.13
2023-05-19T05:43:37.087Z,102873.41
2023-05-19T05:46:03.740Z,102868.88
2023-05-19T05:48:30.551Z,102886.06
2023-05-19T05:50:57.341Z,102878.84
2023-05-19T05:53:26.002Z,102889.03
2023-05-19T05:55:53.724Z,102890.59
2023-05-19T05:58:21.364Z,102880.72
2023-05-19T06:00:49.354Z,102887.38
2023-05-19T06:03:16.894Z,102882.75
2023-05-19T06:05:43.611Z,102877.41
2023-05-19T06:08:10.200Z,102882.41
2023-05-19T06:10:38.993Z,102880.25
2023-05-19T06:13:05.669Z,102878.97
2023-05-19T06:15:32.241Z,102889.22
2023-05-19T06:17:59.257Z,102882.63
2023-05-19T06:20:26.278Z,102887.50
2023-05-19T06:22:52.866Z,102883.66
2023-05-19T06:25:20.590Z,102876.25
2023-05-19T06:27:47.186Z,102874.25
2023-05-19T06:30:13.958Z,102881.84
2023-05-19T06:32:40.669Z,102876.34
2023-05-19T06:35:07.613Z,102872.25
2023-05-19T06:37:34.139Z,102881.50
2023-05-19T06:40:00.679Z,102878.22
2023-05-19T06:42:27.226Z,102883.84
2023-05-19T06:44:53.696Z,102878.97
2023-05-19T06:47:20.252Z,102880.16
2023-05-19T06:49:50.685Z,102880.66
2023-05-19T06:52:17.573Z,102882.94
2023-05-19T06:54:44.068Z,102873.69
2023-05-19T06:57:10.768Z,102878.44
2023-05-19T06:59:37.625Z,102875.31
2023-05-19T07:02:04.792Z,102878.19
2023-05-19T07:04:31.430Z,102882.88
2023-05-19T07:06:58.658Z,102879.88
2023-05-19T07:09:25.307Z,102881.13
2023-05-19T07:11:51.820Z,102878.28
2023-05-19T07:14:18.323Z,102881.19
2023-05-19T07:16:45.010Z,102873.34
2023-05-19T07:19:11.692Z,102876.88
2023-05-19T07:21:38.232Z,102872.56
2023-05-19T07:24:04.884Z,102872.09
2023-05-19T07:26:31.964Z,102872.91
2023-05-19T07:28:58.551Z,102868.91
2023-05-19T07:31:25.151Z,102873.00
2023-05-19T07:33:54.301Z,102865.78
2023-05-19T07:36:21.406Z,102864.56
2023-05-19T07:38:48.825Z,102872.91
2023-05-19T07:41:15.477Z,102865.28
2023-05-19T07:43:42.643Z,102859.38
2023-05-19T07:46:09.264Z,102865.13
2023-05-19T07:48:35.894Z,102864.16
2023-05-19T07:51:02.550Z,102867.28
2023-05-19T07:53:29.143Z,102857.13
2023-05-19T07:55:58.362Z,102853.78
2023-05-19T07:58:25.379Z,102848.78
2023-05-19T08:00:53.238Z,102844.34
2023-05-19T08:03:20.800Z,102848.41
2023-05-19T08:05:47.658Z,102846.44
2023-05-19T08:08:17.037Z,102843.53
2023-05-19T08:10:43.860Z,102840.66
2023-05-19T08:13:10.481Z,102823.66
2023-05-19T08:15:37.692Z,102827.94
2023-05-19T08:18:05.469Z,102832.06
2023-05-19T08:20:32.762Z,102823.06
2023-05-19T08:22:59.896Z,102832.72
2023-05-19T08:25:26.658Z,102825.16
2023-05-19T08:27:53.267Z,102818.28
2023-05-19T08:30:19.887Z,102823.06
2023-05-19T08:32:47.112Z,102817.84
2023-05-19T08:35:13.705Z,102818.53
2023-05-19T08:37:41.145Z,102809.97
2023-05-19T08:40:11.858Z,102809.50
2023-05-19T08:42:38.436Z,102804.88
2023-05-19T08:45:06.934Z,102804.63
2023-05-19T08:47:33.882Z,102801.34
2023-05-19T08:50:07.602Z,102809.81
2023-05-19T08:52:53.256Z,102804.88
2023-05-19T08:55:41.186Z,102797.41
2023-05-19T08:58:08.703Z,102789.34
2023-05-19T09:00:36.058Z,102785.97
2023-05-19T09:03:18.256Z,102787.78
2023-05-19T09:05:50.765Z,102786.09
2023-05-19T09:08:18.412Z,102781.25
2023-05-19T09:10:44.974Z,102786.66
2023-05-19T09:13:11.722Z,102787.09
2023-05-19T09:15:39.881Z,102793.50
2023-05-19T09:18:08.902Z,102789.63
2023-05-19T09:20:46.229Z,102786.34
2023-05-19T09:23:17.274Z,102791.66
2023-05-19T09:25:47.527Z,102784.78
2023-05-19T09:28:14.035Z,102782.97
2023-05-19T09:30:40.521Z,102778.75
2023-05-19T09:33:10.132Z,102774.84
2023-05-19T09:35:37.231Z,102784.00
2023-05-19T09:38:04.013Z,102781.97
2023-05-19T09:40:32.142Z,102775.31
2023-05-19T09:42:58.657Z,102776.47
2023-05-19T09:45:27.196Z,102775.47
2023-05-19T09:47:53.983Z,102771.69
2023-05-19T09:50:20.559Z,102770.84
2023-05-19T09:52:48.226Z,102770.28
2023-05-19T09:55:15.541Z,102770.91
2023-05-19T09:57:42.090Z,102778.72
2023-05-19T10:00:17.637Z,102766.19
2023-05-19T10:02:46.175Z,102769.25
2023-05-19T10:05:22.842Z,102772.41
2023-05-19T10:07:51.626Z,102764.31
2023-05-19T10:10:22.242Z,102762.94
2023-05-19T10:12:49.625Z,102771.44
2023-05-19T10:15:19.604Z,102768.00
2023-05-19T10:17:50.019Z,102759.97
2023-05-19T10:20:17.775Z,102757.38
2023-05-19T10:22:46.401Z,102760.69
2023-05-19T10:25:15.254Z,102758.84
2023-05-19T10:27:56.437Z,102751.50
2023-05-19T10:30:36.668Z,102752.50
2023-05-19T10:33:07.840Z,102741.56
2023-05-19T10:35:40.531Z,102741.25
2023-05-19T10:38:44.613Z,102750.22
2023-05-19T10:41:23.030Z,102734.50
2023-05-19T10:44:11.623Z,102743.25
2023-05-19T10:46:40.459Z,102733.25
2023-05-19T10:49:09.957Z,102736.44
2023-05-19T10:51:37.198Z,102721.38
2023-05-19T10:54:10.463Z,102731.59
2023-05-19T10:56:42.377Z,102728.66
2023-05-19T10:59:32.747Z,102731.41
2023-05-19T11:02:06.995Z,102731.78
2023-05-19T11:04:53.611Z,102736.38
2023-05-19T11:07:22.408Z,102728.31
2023-05-19T11:09:51.572Z,102720.19
2023-05-19T11:12:24.736Z,102727.59
2023-05-19T11:14:55.261Z,102718.22
2023-05-19T11:17:23.707Z,102717.53
2023-05-19T11:19:55.493Z,102724.75
2023-05-19T11:22:27.448Z,102718.78
2023-05-19T11:24:57.554Z,102706.28
2023-05-19T11:27:31.627Z,102699.16
2023-05-19T11:30:08.833Z,102703.84
2023-05-19T11:32:39.354Z,102704.88
2023-05-19T11:35:07.835Z,102703.59
2023-05-19T11:37:34.916Z,102701.00
2023-05-19T11:40:02.884Z,102707.13
2023-05-19T11:42:29.422Z,102701.72
2023-05-19T11:44:56.286Z,102691.47
2023-05-19T11:47:23.169Z,102688.16
2023-05-19T11:49:52.027Z,102692.41
2023-05-19T11:52:22.126Z,102690.22
2023-05-19T11:54:49.292Z,102687.91
2023-05-19T11:57:15.825Z,102679.47
2023-05-19T11:59:45.731Z,102688.81
2023-05-19T12:02:24.859Z,102676.88
2023-05-19T12:04:52.362Z,102688.00
2023-05-19T12:07:22.833Z,102690.41
2023-05-19T12:09:50.425Z,102677.75
2023-05-19T12:12:19.108Z,102689.50
2023-05-19T12:14:52.712Z,102685.38
2023-05-19T12:17:21.294Z,102694.91
2023-05-19T12:19:49.318Z,102685.31
2023-05-19T12:22:19.749Z,102677.91
2023-05-19T12:24:47.206Z,102684.53
2023-05-19T12:27:23.223Z,102675.63
2023-05-19T12:29:54.505Z,102682.06
2023-05-19T12:32:25.680Z,102679.66
2023-05-19T12:34:53.741Z,102679.38
2023-05-19T12:37:20.302Z,102671.00
2023-05-19T12:39:48.872Z,102663.91
2023-05-19T12:45:36.171Z,102656.31
2023-05-19T12:48:11.280Z,102658.88
2023-05-19T12:50:38.327Z,102657.22
2023-05-19T12:53:09.360Z,102647.84
2023-05-19T12:55:45.442Z,102645.53
2023-05-19T12:58:15.455Z,102656.03
2023-05-19T13:00:45.244Z,102649.59
2023-05-19T13:03:20.406Z,102649.88
2023-05-19T13:05:49.087Z,102651.75
2023-05-19T13:08:17.065Z,102647.47
2023-05-19T13:10:45.865Z,102643.66
2023-05-19T13:13:13.087Z,102644.63
2023-05-19T13:15:42.106Z,102644.38
2023-05-19T13:18:10.896Z,102639.19
2023-05-19T13:20:38.956Z,102643.41
2023-05-19T13:23:05.855Z,102642.59
2023-05-19T13:25:34.367Z,102640.16
2023-05-19T13:28:05.085Z,102641.66
2023-05-19T13:30:33.025Z,102638.38
2023-05-19T13:32:59.861Z,102635.91
2023-05-19T13:35:26.664Z,102628.81
2023-05-19T13:37:53.369Z,102627.03
2023-05-19T13:40:20.247Z,102625.47
2023-05-19T13:42:47.075Z,102610.59
2023-05-19T13:45:13.800Z,102610.56
2023-05-19T13:47:40.383Z,102611.69
2023-05-19T13:50:07.416Z,102613.31
2023-05-19T13:52:34.066Z,102600.47
2023-05-19T13:55:00.641Z,102607.81
2023-05-19T13:57:27.204Z,102611.47
2023-05-19T14:00:02.044Z,102610.50
2023-05-19T14:02:30.334Z,102601.22
2023-05-19T14:04:57.597Z,102605.78
2023-05-19T14:07:24.389Z,102614.59
2023-05-19T14:09:52.302Z,102605.19
2023-05-19T14:12:19.344Z,102606.63
2023-05-19T14:14:48.976Z,102596.16
2023-05-19T14:17:15.713Z,102595.19
2023-05-19T14:19:42.395Z,102593.34
2023-05-19T14:22:08.996Z,102594.28
2023-05-19T14:24:35.604Z,102587.31
2023-05-19T14:27:02.178Z,102592.13
2023-05-19T14:29:31.018Z,102585.91
2023-05-19T14:31:57.757Z,102586.91
2023-05-19T14:34:24.423Z,102582.81
2023-05-19T14:36:51.091Z,102573.81
2023-05-19T14:39:17.623Z,102571.56
2023-05-19T14:41:44.196Z,102581.41
2023-05-19T14:44:11.095Z,102582.38
2023-05-19T14:46:37.714Z,102575.28
2023-05-19T14:49:06.412Z,102572.84
2023-05-19T14:51:33.011Z,102582.94
2023-05-19T14:54:00.621Z,102574.53
2023-05-19T14:56:27.143Z,102571.09
2023-05-19T14:58:53.659Z,102557.59
2023-05-19T15:01:20.293Z,102571.31
2023-05-19T15:03:46.940Z,102569.44
2023-05-19T15:06:13.560Z,102565.44
2023-05-19T15:08:41.553Z,102564.34
2023-05-19T15:11:08.236Z,102566.41
2023-05-19T15:13:34.816Z,102574.09
2023-05-19T15:16:16.225Z,102561.91
2023-05-19T15:18:44.516Z,102555.72
2023-05-19T15:21:11.238Z,102547.75
2023-05-19T15:23:37.789Z,102554.59
2023-05-19T15:26:04.600Z,102555.47
2023-05-19T15:28:31.226Z,102554.84
2023-05-19T15:30:57.776Z,102554.84
2023-05-19T15:33:24.428Z,102550.53
2023-05-19T15:35:52.188Z,102549.09
2023-05-19T15:38:19.659Z,102552.44
2023-05-19T15:40:46.751Z,102558.44
2023-05-19T15:43:13.538Z,102543.78
2023-05-19T15:45:40.275Z,102541.69
2023-05-19T15:48:06.998Z,102538.50
2023-05-19T15:50:34.101Z,102542.16
2023-05-19T15:53:00.860Z,102536.25
2023-05-19T15:55:27.496Z,102533.72
2023-05-19T15:57:54.042Z,102543.06
2023-05-19T16:00:20.730Z,102543.72
2023-05-19T16:02:47.441Z,102534.75
2023-05-19T16:05:14.101Z,102539.25
2023-05-19T16:07:42.106Z,102544.03
2023-05-19T16:10:09.126Z,102530.81
2023-05-19T16:12:36.726Z,102523.84
2023-05-19T16:15:03.644Z,102524.97
2023-05-19T16:17:30.367Z,102527.34
2023-05-19T16:19:57.122Z,102518.53
2023-05-19T16:22:24.844Z,102526.91
2023-05-19T16:24:52.229Z,102519.63
2023-05-19T16:27:19.104Z,102518.66
2023-05-19T16:29:45.776Z,102515.44
2023-05-19T16:32:12.904Z,102516.53
2023-05-19T16:34:39.772Z,102513.63
2023-05-19T16:37:06.746Z,102513.91
2023-05-19T16:39:36.095Z,102511.66
2023-05-19T16:42:03.772Z,102514.47
2023-05-19T16:44:30.432Z,102510.31
2023-05-19T16:46:57.021Z,102512.56
2023-05-19T16:49:23.576Z,102518.69
2023-05-19T16:51:50.055Z,102515.31
2023-05-19T16:54:16.735Z,102516.00
2023-05-19T16:56:43.378Z,102521.97
2023-05-19T16:59:10.036Z,102512.72
2023-05-19T17:01:36.565Z,102513.88
2023-05-19T17:04:03.151Z,102504.00
2023-05-19T17:06:29.807Z,102515.91
2023-05-19T17:08:56.367Z,102511.19
2023-05-19T17:11:23.032Z,102524.94
2023-05-19T17:13:49.597Z,102531.22
2023-05-19T17:16:16.547Z,102525.06
2023-05-19T17:18:43.946Z,102527.59
2023-05-19T17:21:10.731Z,102510.94
2023-05-19T17:23:37.866Z,102517.91
2023-05-19T17:26:04.620Z,102519.09
2023-05-19T17:28:31.110Z,102521.81
2023-05-19T17:30:57.652Z,102524.06
2023-05-19T17:33:24.324Z,102519.72
2023-05-19T17:35:51.159Z,102521.34
2023-05-19T17:38:17.674Z,102519.09
2023-05-19T17:40:44.443Z,102525.38
2023-05-19T17:43:11.067Z,102526.97
2023-05-19T17:45:37.608Z,102526.44
2023-05-19T17:48:04.756Z,102521.31
2023-05-19T17:50:31.528Z,102519.94
2023-05-19T17:52:58.467Z,102525.91
2023-05-19T17:55:29.710Z,102524.91
2023-05-19T17:57:56.896Z,102527.88
2023-05-19T18:00:25.246Z,102525.13
2023-05-19T18:02:52.654Z,102528.81
2023-05-19T18:05:19.958Z,102523.50
2023-05-19T18:07:46.997Z,102525.66
2023-05-19T18:10:15.382Z,102527.75
2023-05-19T18:12:41.980Z,102532.84
2023-05-19T18:15:08.909Z,102533.28
2023-05-19T18:17:35.478Z,102534.53
2023-05-19T18:20:02.415Z,102538.56
2023-05-19T18:22:28.966Z,102540.13
2023-05-19T18:24:56.222Z,102538.41
2023-05-19T18:27:22.737Z,102547.94
2023-05-19T18:29:49.282Z,102544.25
2023-05-19T18:32:17.669Z,102534.44
2023-05-19T18:34:44.508Z,102543.81
2023-05-19T18:37:10.973Z,102545.69
2023-05-19T18:39:45.170Z,102550.41
2023-05-19T18:42:11.688Z,102552.34
2023-05-19T18:44:38.224Z,102550.31
2023-05-19T18:47:04.976Z,102548.25
2023-05-19T18:49:31.905Z,102566.81
2023-05-19T18:51:58.421Z,102569.31
2023-05-19T18:54:24.936Z,102561.22
2023-05-19T18:56:51.422Z,102563.59
2023-05-19T18:59:18.002Z,102561.47
2023-05-19T19:01:45.265Z,102572.63
2023-05-19T19:04:12.047Z,102564.59
2023-05-19T19:06:38.624Z,102559.13
2023-05-19T19:09:05.127Z,102560.63
2023-05-19T19:11:31.712Z,102579.72
2023-05-19T19:13:58.212Z,102574.78
2023-05-19T19:16:25.111Z,102579.72
2023-05-19T19:18:51.952Z,102571.34
2023-05-19T19:21:19.914Z,102578.81
2023-05-19T19:23:46.413Z,102579.38
2023-05-19T19:26:13.119Z,102576.69
2023-05-19T19:28:39.673Z,102581.47
2023-05-19T19:31:06.168Z,102587.13
2023-05-19T19:33:32.732Z,102592.91
2023-05-19T19:35:59.311Z,102585.78
2023-05-19T19:38:25.912Z,102595.19
2023-05-19T19:40:52.609Z,102599.25
2023-05-19T19:43:19.156Z,102600.75
2023-05-19T19:45:45.685Z,102598.78
2023-05-19T19:48:12.517Z,102608.22
2023-05-19T19:50:39.051Z,102607.78
2023-05-19T19:53:05.667Z,102613.50
2023-05-19T19:55:32.377Z,102612.66
2023-05-19T19:57:58.916Z,102621.06
2023-05-19T20:00:25.453Z,102624.34
2023-05-19T20:03:04.417Z,102629.38
2023-05-19T20:05:32.249Z,102619.38
2023-05-19T20:07:58.862Z,102625.00
2023-05-19T20:10:25.481Z,102620.88
2023-05-19T20:12:52.228Z,102624.91
2023-05-19T20:15:19.391Z,102626.81
2023-05-19T20:17:46.208Z,102628.88
2023-05-19T20:20:13.151Z,102637.94
2023-05-19T20:22:39.727Z,102628.59
2023-05-19T20:25:06.601Z,102638.59
2023-05-19T20:27:33.212Z,102645.63
2023-05-19T20:29:59.783Z,102636.50
2023-05-19T20:32:26.356Z,102641.75
2023-05-19T20:34:52.995Z,102643.72
2023-05-19T20:37:20.945Z,102649.25
2023-05-19T20:39:47.706Z,102645.06
2023-05-19T20:42:14.322Z,102646.28
2023-05-19T20:44:40.994Z,102653.22
2023-05-19T20:47:08.227Z,102653.22
2023-05-19T20:49:35.309Z,102659.53
2023-05-19T20:52:02.188Z,102650.19
2023-05-19T20:54:28.790Z,102658.19
2023-05-19T20:56:55.438Z,102655.53
2023-05-19T20:59:22.044Z,102661.19
2023-05-19T21:01:48.658Z,102659.44
2023-05-19T21:04:15.402Z,102660.50
2023-05-19T21:06:42.018Z,102654.66
2023-05-19T21:09:08.844Z,102658.28
2023-05-19T21:11:35.602Z,102662.84
2023-05-19T21:14:04.191Z,102665.63
2023-05-19T21:16:31.318Z,102658.63
2023-05-19T21:18:58.025Z,102663.09
2023-05-19T21:21:24.644Z,102674.13
2023-05-19T21:23:51.153Z,102671.72
2023-05-19T21:26:17.922Z,102670.13
2023-05-19T21:28:44.558Z,102672.28
2023-05-19T21:31:11.339Z,102683.09
2023-05-19T21:33:37.920Z,102678.03
2023-05-19T21:36:04.653Z,102677.25
2023-05-19T21:38:31.184Z,102679.31
2023-05-19T21:40:57.786Z,102686.56
2023-05-19T21:43:24.286Z,102687.50
2023-05-19T21:45:50.807Z,102690.34
2023-05-19T21:48:17.653Z,102692.31
2023-05-19T21:50:44.412Z,102690.84
2023-05-19T21:53:10.908Z,102691.09
2023-05-19T21:55:37.487Z,102692.03
2023-05-19T21:58:03.944Z,102694.03
2023-05-19T22:00:30.464Z,102694.09
2023-05-19T22:02:57.697Z,102693.41
2023-05-19T22:05:24.425Z,102690.84
2023-05-19T22:07:50.950Z,102692.72
2023-05-19T22:10:17.512Z,102690.91
2023-05-19T22:12:44.051Z,102685.66
2023-05-19T22:15:11.457Z,102684.09
2023-05-19T22:17:38.028Z,102695.88
2023-05-19T22:20:05.423Z,102690.03
2023-05-19T22:22:31.924Z,102682.97
2023-05-19T22:24:58.650Z,102687.53
2023-05-19T22:27:25.175Z,102679.88
2023-05-19T22:29:51.689Z,102689.03
2023-05-19T22:32:19.526Z,102691.97
2023-05-19T22:34:46.358Z,102693.00
2023-05-19T22:37:13.061Z,102696.91
2023-05-19T22:39:39.622Z,102699.56
2023-05-19T22:42:06.229Z,102695.19
2023-05-19T22:44:32.767Z,102685.81
2023-05-19T22:46:59.304Z,102691.41
2023-05-19T22:49:27.391Z,102689.06
2023-05-19T22:51:53.888Z,102685.84
2023-05-19T22:54:20.507Z,102687.78
2023-05-19T22:56:48.749Z,102684.53
2023-05-19T22:59:17.927Z,102691.78
2023-05-19T23:01:46.509Z,102692.03
2023-05-19T23:04:13.960Z,102697.53
2023-05-19T23:06:40.731Z,102689.75
2023-05-19T23:09:07.219Z,102689.13
2023-05-19T23:11:34.702Z,102692.97
2023-05-19T23:14:01.931Z,102693.13
2023-05-19T23:16:28.476Z,102691.56
2023-05-19T23:18:55.087Z,102687.16
2023-05-19T23:21:21.585Z,102691.78
2023-05-19T23:23:48.172Z,102682.31
2023-05-19T23:26:14.640Z,102681.69
2023-05-19T23:28:44.647Z,102687.13
2023-05-19T23:31:11.210Z,102688.38
2023-05-19T23:33:37.747Z,102686.16
2023-05-19T23:36:09.044Z,102689.69
2023-05-19T23:38:36.528Z,102682.72
2023-05-19T23:41:03.851Z,102688.03
2023-05-19T23:43:32.274Z,102687.22
2023-05-19T23:45:59.251Z,102685.53
2023-05-19T23:48:27.148Z,102684.00
2023-05-19T23:50:53.627Z,102676.28
2023-05-19T23:53:20.128Z,102686.09
2023-05-19T23:55:47.366Z,102682.72
2023-05-19T23:58:14.659Z,102675.84
